Meteo Giornale » Osservazioni meteo Giappone » Kadena Ab
ore: 02:51 - Osservazioni Meteo Kadena Ab
Lat. 26° 21' N Lon. 127° 46' E Alt. 45 metri s.l.m.
28 °C
Nuvoloso
Temp. 24 Ore
27 °C
30 °C
Est/Nord-Est
29.6 Km/h
Dew point 26 °C
Umidità 88 %
Visibilità 10 Km
Il sole sorge alle ore 06:08
Il sole tramonta alle ore 18:49
| Data e Ora | Cielo e Fenomeni | T °C | DP °C | Um. % | Pres. hPa | Vis. km | Vento km/h | |
|---|---|---|---|---|---|---|---|---|
| Oggi h: 02:51 | Nuvoloso | 28 | 26 | 88 | 1004 | 10 | E/NE 29.6 | |
| Oggi h: 02:06 | Molto Nuvoloso | 27 | 26 | 94 | 1005 | 14 | E/NE 25.9 | |
| Oggi h: 01:55 | Pioggia | 28 | 26 | 88 | 1005 | 13 | E/NE 33.3 | |
| Oggi h: 01:50 | Pioviggine | 28 | 26 | 88 | 1004 | 10 | E/NE 25.9 | |
| Oggi h: 00:55 | Molto Nuvoloso | 28 | 26 | 88 | 1005 | 10 | E/NE 25.9 | |
| Ieri h: 23:55 | Molto Nuvoloso | 28 | 25 | 83 | 1005 | 10 | E/NE 29.6 | |
| Ieri h: 23:21 | Molto Nuvoloso | 28 | 26 | 88 | 1006 | 10 | E/NE 24 | |
| Ieri h: 22:56 | Pioggia | 28 | 26 | 88 | 1006 | 10 | E/NE 25.9 | |
| Ieri h: 22:55 | Molto Nuvoloso | 28 | 26 | 88 | 1005 | 10 | E/NE 25.9 | |
| Ieri h: 22:45 | Molto Nuvoloso | 28 | 26 | 88 | 1005 | 10 | E/NE 25.9 | |
| Ieri h: 22:34 | Pioggia | 28 | 25 | 83 | 1006 | 10 | E/NE 24 | |
| Ieri h: 22:24 | Molto Nuvoloso | 28 | 25 | 83 | 1006 | 10 | E/NE 25.9 | |
| Ieri h: 22:02 | Pioviggine | 28 | 26 | 88 | 1005 | 10 | E 20.3 | |
| Ieri h: 21:55 | Nuvoloso | 28 | 26 | 88 | 1005 | 10 | E/NE 22.2 | |
| Ieri h: 21:29 | Molto Nuvoloso | 28 | 26 | 88 | 1005 | 10 | E/NE 25.9 | |
| Ieri h: 21:12 | Pioggia | 29 | 25 | 79 | 1005 | 10 | E/NE 31.5 | |
| Ieri h: 20:55 | Molto Nuvoloso | 29 | 25 | 79 | 1005 | 10 | E/NE 27.8 | |
| Ieri h: 19:55 | Poco Nuvoloso | 29 | 25 | 79 | 1005 | 10 | E/NE 33.3 | |
| Ieri h: 18:55 | Molto Nuvoloso | 29 | 25 | 79 | 1004 | 10 | E/NE 31.5 | |
| Ieri h: 17:55 | Nuvoloso | 29 | 25 | 79 | 1004 | 10 | E/NE 31.5 | |
| Ieri h: 16:55 | Nuvoloso | 30 | 25 | 74 | 1004 | 10 | E 37 | |
| Ieri h: 15:56 | Pioviggine | 30 | 26 | 79 | 1004 | 10 | NE 35.2 | |
| Ieri h: 14:55 | Pioviggine | 29 | 26 | 83 | 1004 | 11 | E/NE 31.5 | |
| Ieri h: 14:51 | Pioggia | 29 | 26 | 83 | 1004 | 5 | E/NE 27.8 | |
| Ieri h: 14:44 | Pioviggine | 30 | 26 | 79 | 1004 | 6 | E/NE 33.3 | |
| Ieri h: 13:55 | Molto Nuvoloso | 30 | 26 | 79 | 1005 | 10 | E/NE 29.6 | |
| Ieri h: 12:55 | Molto Nuvoloso | 30 | 26 | 79 | 1006 | 10 | E/NE 25.9 | |
| Ieri h: 12:12 | Pioviggine | 28 | 26 | 88 | 1006 | 10 | E/NE 24 | |
| Ieri h: 12:11 | Pioviggine | 28 | 26 | 88 | 1006 | 10 | E/NE 24 | |
| Ieri h: 12:00 | Pioggia | 28 | 26 | 88 | 1006 | 10 | E/NE 25.9 | |
| Ieri h: 11:55 | Pioggia | 30 | 26 | 79 | 1006 | 6 | E/NE 29.6 | |
| Ieri h: 11:48 | Pioviggine | 29 | 26 | 83 | 1006 | 8 | NE 27.8 | |
| Ieri h: 11:41 | Pioviggine | 29 | 25 | 79 | 1006 | 10 | E/NE 25.9 | |
| Ieri h: 10:55 | Molto Nuvoloso | 30 | 25 | 74 | 1006 | 10 | E/NE 27.8 | |
| Ieri h: 09:55 | Molto Nuvoloso | 29 | 25 | 79 | 1006 | 10 | E/NE 24 | |
| Ieri h: 08:55 | Molto Nuvoloso | 30 | 25 | 74 | 1006 | 10 | E/NE 22.2 | |
| Ieri h: 07:55 | Molto Nuvoloso | 28 | 25 | 83 | 1006 | 10 | E 18.5 | |
| Ieri h: 06:55 | Nuvoloso | 28 | 24 | 78 | 1006 | 10 | E/NE 16.7 | |
| Ieri h: 05:55 | Nuvoloso | 27 | 24 | 83 | 1006 | 10 | E 13 | |
| Ieri h: 04:55 | Nuvoloso | 27 | 24 | 83 | 1006 | 10 | E/NE 14.8 | |
| Ieri h: 03:55 | Nuvoloso | 27 | 24 | 83 | 1005 | 10 | E 14.8 | |



